Time;durP1;ratioP1;P1;durP2;ratioP2;P2;SDS_P1;SDS_P2;PMS_P1;PMS_P2;Temp;Humidity;BMP_temperature;BMP_pressure;BME280_temperature;BME280_humidity;BME280_pressure;Samples;Min_cycle;Max_cycle;Signal;HPM_P1;HPM_P2
2022/12/22 03:25:52;;;;;;;35.47;17.83;;;7.10;83.20;;;;;;4187919;28;20059;-92
2022/12/22 03:27:52;;;;;;;37.40;18.30;;;7.10;83.20;;;;;;4187854;28;20385;-92
2022/12/22 03:29:53;;;;;;;33.42;17.52;;;7.10;83.20;;;;;;4184053;28;20106;-92
2022/12/22 03:31:54;;;;;;;38.67;17.30;;;7.10;83.20;;;;;;4172933;28;20025;-92
2022/12/22 03:33:54;;;;;;;37.13;17.85;;;7.10;83.30;;;;;;4185790;28;20570;-91
2022/12/22 03:35:55;;;;;;;33.58;16.67;;;7.10;83.30;;;;;;4169537;28;20446;-93
2022/12/22 03:38:02;;;;;;;34.40;17.35;;;7.10;83.30;;;;;;4172557;28;20040;-92
2022/12/22 03:40:03;;;;;;;37.28;18.63;;;7.10;83.20;;;;;;4169301;28;20036;-92
2022/12/22 03:46:43;;;;;;;33.83;16.27;;;7.10;83.30;;;;;;4187110;28;20737;-91
2022/12/22 03:49:08;;;;;;;36.40;17.23;;;7.10;83.20;;;;;;4199543;28;20056;-92
2022/12/22 03:51:25;;;;;;;34.50;16.23;;;7.20;83.30;;;;;;4187810;28;20083;-91
2022/12/22 03:53:34;;;;;;;33.63;16.33;;;7.10;83.20;;;;;;4184323;28;20029;-91
2022/12/22 03:55:55;;;;;;;33.60;16.30;;;7.20;83.20;;;;;;4187883;28;20040;-91
2022/12/22 03:58:16;;;;;;;32.22;16.77;;;7.20;83.30;;;;;;4187435;28;20060;-92
2022/12/22 04:00:36;;;;;;;31.65;15.77;;;7.10;83.20;;;;;;4183833;28;20600;-92
2022/12/22 04:02:58;;;;;;;36.63;15.25;;;7.20;83.20;;;;;;4203414;28;20040;-92
2022/12/22 04:05:18;;;;;;;38.28;17.58;;;7.30;83.30;;;;;;4205860;28;20060;-91
2022/12/22 04:07:39;;;;;;;30.58;16.40;;;7.20;83.20;;;;;;4205323;28;20164;-91
2022/12/22 04:15:04;;;;;;;31.80;16.83;;;7.20;83.20;;;;;;4190979;28;20408;-92
2022/12/22 04:17:24;;;;;;;31.48;17.25;;;7.20;83.10;;;;;;4190557;28;20639;-91
2022/12/22 04:19:45;;;;;;;32.78;17.67;;;7.20;83.20;;;;;;4199203;28;20024;-90
2022/12/22 04:22:06;;;;;;;33.75;16.85;;;7.20;83.20;;;;;;4191578;28;20066;-91
2022/12/22 04:24:26;;;;;;;33.08;16.73;;;7.20;83.10;;;;;;4188982;28;20444;-90
2022/12/22 04:26:47;;;;;;;36.63;17.33;;;7.20;83.10;;;;;;4184914;28;20700;-91
2022/12/22 04:29:08;;;;;;;32.88;17.40;;;7.20;83.10;;;;;;4188077;28;20424;-91
2022/12/22 04:31:29;;;;;;;35.70;18.48;;;7.20;83.10;;;;;;4188810;28;20440;-91
2022/12/22 04:33:50;;;;;;;34.03;18.20;;;7.20;83.00;;;;;;4188056;28;20423;-91
2022/12/22 04:36:12;;;;;;;41.10;17.38;;;7.20;83.10;;;;;;4185481;28;20401;-91
2022/12/22 04:38:33;;;;;;;41.08;18.48;;;7.20;83.10;;;;;;4184580;28;20554;-91
2022/12/22 04:40:54;;;;;;;35.38;18.15;;;7.20;83.10;;;;;;4189804;28;20532;-92
2022/12/22 04:43:15;;;;;;;36.03;17.73;;;7.20;83.10;;;;;;4187934;28;20757;-91
2022/12/22 04:45:35;;;;;;;38.35;18.52;;;7.20;83.10;;;;;;4187171;28;20033;-91
2022/12/22 04:47:56;;;;;;;35.75;18.88;;;7.20;83.10;;;;;;4186309;28;20040;-90
2022/12/22 04:50:16;;;;;;;37.17;19.85;;;7.20;83.10;;;;;;4184765;28;20048;-89
2022/12/22 04:52:37;;;;;;;39.00;18.95;;;7.20;83.10;;;;;;4184038;28;20610;-89
2022/12/22 04:54:58;;;;;;;36.95;18.98;;;7.20;83.10;;;;;;4187599;28;20032;-89
2022/12/22 04:57:20;;;;;;;36.58;17.63;;;7.20;83.10;;;;;;4179287;28;20032;-89
2022/12/22 04:59:41;;;;;;;37.60;17.52;;;7.20;83.10;;;;;;4185032;28;20523;-89
2022/12/22 05:02:01;;;;;;;37.58;17.83;;;7.30;83.20;;;;;;4186080;28;20529;-90
2022/12/22 05:04:22;;;;;;;33.88;16.88;;;7.20;83.10;;;;;;4187609;28;20485;-89
2022/12/22 05:06:43;;;;;;;37.88;18.45;;;7.30;83.10;;;;;;4182622;28;20892;-90
2022/12/22 05:09:03;;;;;;;34.85;17.90;;;7.20;83.10;;;;;;4180540;28;20598;-89
2022/12/22 05:11:24;;;;;;;37.28;18.05;;;7.30;83.10;;;;;;4175581;28;20514;-89
2022/12/22 05:13:44;;;;;;;33.33;17.50;;;7.30;83.20;;;;;;4178454;28;20032;-89
2022/12/22 05:16:08;;;;;;;40.92;19.33;;;7.20;83.10;;;;;;4181006;28;20544;-90
2022/12/22 05:18:29;;;;;;;39.20;18.83;;;7.30;83.10;;;;;;4183132;28;20560;-92
2022/12/22 05:20:49;;;;;;;33.78;17.05;;;7.20;83.10;;;;;;4185956;28;20111;-91
2022/12/22 05:23:10;;;;;;;36.92;17.33;;;7.20;83.10;;;;;;4181954;28;20055;-93
2022/12/22 05:25:31;;;;;;;34.95;17.35;;;7.20;83.10;;;;;;4181130;28;20033;-91
2022/12/22 05:27:52;;;;;;;34.58;18.05;;;7.20;83.00;;;;;;4188365;28;20044;-91
2022/12/22 05:30:14;;;;;;;36.42;18.65;;;7.30;83.10;;;;;;4185310;28;20670;-91
2022/12/22 05:32:35;;;;;;;33.95;17.40;;;7.20;83.00;;;;;;4184590;28;20029;-91
2022/12/22 05:34:55;;;;;;;35.25;18.10;;;7.30;83.00;;;;;;4184259;28;20065;-91
2022/12/22 05:37:16;;;;;;;36.70;17.52;;;7.20;83.00;;;;;;4180285;28;20043;-91
2022/12/22 05:39:35;;;;;;;37.28;17.98;;;7.20;83.00;;;;;;4179217;28;20032;-90
2022/12/22 05:42:01;;;;;;;37.75;18.23;;;7.20;82.90;;;;;;4176281;28;20662;-93
2022/12/22 05:44:07;;;;;;;44.00;20.05;;;7.20;82.90;;;;;;4171095;28;20062;-90
2022/12/22 05:46:09;;;;;;;42.60;18.70;;;7.20;82.80;;;;;;4180629;28;20028;-92
2022/12/22 05:48:11;;;;;;;34.05;18.92;;;7.20;82.80;;;;;;4166839;28;20029;-92
2022/12/22 05:50:14;;;;;;;32.95;18.20;;;7.20;82.90;;;;;;4184900;28;20139;-91
2022/12/22 05:52:26;;;;;;;40.15;21.23;;;7.10;82.80;;;;;;4185691;28;20021;-91
2022/12/22 05:54:46;;;;;;;37.80;18.65;;;7.10;82.70;;;;;;4186707;28;20024;-91
2022/12/22 05:57:09;;;;;;;39.83;19.33;;;7.10;82.70;;;;;;4189607;28;20028;-90
2022/12/22 05:59:30;;;;;;;42.35;20.10;;;7.10;82.70;;;;;;4186088;28;20107;-91
2022/12/22 06:01:51;;;;;;;39.33;19.67;;;7.10;82.70;;;;;;4185476;28;20033;-91
2022/12/22 06:04:11;;;;;;;46.60;20.23;;;7.10;82.70;;;;;;4189444;28;20029;-91
2022/12/22 06:06:32;;;;;;;46.22;22.05;;;7.10;82.70;;;;;;4187214;28;20051;-91
2022/12/22 06:08:53;;;;;;;47.40;23.13;;;7.10;82.70;;;;;;4187686;28;20242;-91
2022/12/22 06:11:17;;;;;;;39.63;20.77;;;7.10;82.80;;;;;;4180099;28;20713;-92
2022/12/22 06:13:37;;;;;;;42.35;19.67;;;7.10;82.70;;;;;;4182648;28;20036;-91
2022/12/22 06:15:58;;;;;;;45.28;19.63;;;7.10;82.80;;;;;;4184229;28;20039;-91
2022/12/22 06:18:18;;;;;;;46.45;19.80;;;7.10;82.80;;;;;;4186192;28;20060;-91
2022/12/22 06:20:22;;;;;;;36.78;19.13;;;7.00;82.80;;;;;;4172398;28;20397;-92
2022/12/22 06:22:26;;;;;;;43.83;19.35;;;7.00;82.80;;;;;;4171211;28;20033;-92
2022/12/22 06:24:27;;;;;;;38.60;18.58;;;7.20;83.10;;;;;;4166545;28;20029;-91
2022/12/22 06:26:48;;;;;;;40.63;19.95;;;7.10;83.00;;;;;;4178295;28;20037;-91
2022/12/22 06:29:09;;;;;;;39.58;18.63;;;7.00;82.90;;;;;;4184656;28;20036;-92
2022/12/22 06:31:29;;;;;;;38.00;19.80;;;7.00;82.90;;;;;;4186539;28;20047;-91
2022/12/22 06:33:50;;;;;;;44.60;18.63;;;7.00;82.90;;;;;;4183966;28;20021;-91
2022/12/22 06:35:56;;;;;;;40.50;19.40;;;7.00;82.90;;;;;;4169474;28;20029;-91
2022/12/22 06:37:57;;;;;;;39.33;19.58;;;7.00;83.00;;;;;;4172339;28;20481;-92
2022/12/22 06:40:18;;;;;;;37.00;18.60;;;7.10;83.10;;;;;;4182342;28;20055;-91
2022/12/22 06:45:09;;;;;;;38.47;18.70;;;7.00;83.10;;;;;;4180562;28;20562;-92
2022/12/22 06:47:30;;;;;;;38.15;18.63;;;7.00;83.00;;;;;;4188417;28;20035;-92
2022/12/22 06:49:51;;;;;;;39.38;19.23;;;7.00;83.10;;;;;;4185742;28;20042;-91
2022/12/22 06:52:11;;;;;;;38.78;19.27;;;7.00;83.00;;;;;;4188943;28;20068;-91
2022/12/22 06:54:32;;;;;;;39.63;19.48;;;7.10;82.90;;;;;;4187140;28;20052;-91
2022/12/22 06:56:52;;;;;;;37.58;18.13;;;7.00;82.80;;;;;;4187639;28;20036;-91
2022/12/22 06:59:13;;;;;;;31.08;17.05;;;7.10;82.80;;;;;;4189995;28;20063;-91
2022/12/22 07:01:34;;;;;;;33.22;17.80;;;7.00;82.70;;;;;;4187380;28;20135;-93
2022/12/22 07:03:54;;;;;;;32.15;16.27;;;6.90;82.60;;;;;;4193531;28;20033;-91
2022/12/22 07:06:17;;;;;;;32.08;16.58;;;6.90;82.60;;;;;;4188962;28;20035;-91
2022/12/22 07:08:37;;;;;;;34.13;16.23;;;6.90;82.60;;;;;;4187370;28;20429;-91
2022/12/22 07:10:58;;;;;;;35.35;15.85;;;6.90;82.60;;;;;;4190309;28;20105;-91
2022/12/22 07:13:19;;;;;;;33.60;16.58;;;6.90;82.60;;;;;;4188868;28;20094;-91
2022/12/22 07:15:39;;;;;;;33.03;16.23;;;6.90;82.60;;;;;;4185003;28;20037;-91
2022/12/22 07:18:00;;;;;;;29.95;16.15;;;6.90;82.60;;;;;;4174652;28;20024;-90
2022/12/22 07:20:21;;;;;;;34.38;16.17;;;6.90;82.70;;;;;;4179474;28;20044;-89
2022/12/22 07:22:42;;;;;;;29.38;14.98;;;6.80;82.50;;;;;;4185384;28;20583;-90
2022/12/22 07:25:02;;;;;;;34.40;16.38;;;6.80;82.50;;;;;;4173388;28;20039;-91
2022/12/22 07:27:23;;;;;;;35.85;16.67;;;6.80;82.50;;;;;;4174424;28;20078;-91
2022/12/22 07:29:44;;;;;;;32.33;16.52;;;6.70;82.50;;;;;;4180497;28;20041;-91
2022/12/22 07:32:05;;;;;;;33.13;16.38;;;6.70;82.40;;;;;;4183740;28;20036;-90
2022/12/22 07:34:25;;;;;;;32.05;15.52;;;6.70;82.40;;;;;;4187848;28;20133;-89
2022/12/22 07:36:46;;;;;;;31.73;16.55;;;6.70;82.50;;;;;;4177327;28;20040;-90
2022/12/22 07:39:07;;;;;;;34.63;16.58;;;6.70;82.50;;;;;;4183086;28;20108;-90
2022/12/22 07:44:07;;;;;;;32.25;16.50;;;6.70;82.60;;;;;;4183786;28;20028;-90
2022/12/22 07:46:33;;;;;;;32.53;16.75;;;6.60;82.70;;;;;;4184676;28;20449;-90
2022/12/22 07:51:51;;;;;;;32.80;16.38;;;6.60;82.80;;;;;;4151798;28;20056;-89
2022/12/22 07:54:13;;;;;;;38.35;17.02;;;6.60;82.80;;;;;;4181441;28;20041;-89
2022/12/22 07:56:35;;;;;;;36.08;17.35;;;6.60;82.80;;;;;;4187886;28;20028;-89
2022/12/22 07:58:56;;;;;;;39.78;17.55;;;6.60;83.00;;;;;;4186792;28;20036;-88
2022/12/22 08:01:16;;;;;;;35.58;16.80;;;6.60;83.00;;;;;;4180529;28;20043;-89
2022/12/22 08:03:37;;;;;;;33.75;17.52;;;6.60;83.00;;;;;;4183063;28;20042;-87
2022/12/22 08:05:38;;;;;;;36.95;18.50;;;6.60;83.10;;;;;;4196959;28;20139;-88
2022/12/22 08:07:39;;;;;;;35.70;18.85;;;6.60;83.10;;;;;;4177825;28;20080;-87
2022/12/22 08:09:40;;;;;;;33.40;17.95;;;6.60;83.10;;;;;;4182680;28;20032;-89
2022/12/22 08:11:41;;;;;;;32.78;16.73;;;6.60;83.20;;;;;;4179418;28;20036;-89
2022/12/22 08:13:42;;;;;;;31.58;17.38;;;6.60;83.10;;;;;;4181568;28;20036;-90
2022/12/22 08:15:43;;;;;;;32.83;17.67;;;6.60;83.20;;;;;;4178432;28;20045;-88
2022/12/22 08:17:44;;;;;;;31.42;15.60;;;6.80;83.30;;;;;;4169659;28;20037;-89
2022/12/22 08:19:44;;;;;;;36.03;15.73;;;6.70;83.30;;;;;;4177401;28;20027;-89
2022/12/22 08:21:45;;;;;;;29.73;15.27;;;6.70;83.20;;;;;;4172286;28;20057;-88
2022/12/22 08:23:46;;;;;;;35.85;15.95;;;6.70;83.30;;;;;;4186302;28;20024;-89
2022/12/22 08:25:49;;;;;;;30.05;14.80;;;6.70;83.30;;;;;;4187648;28;20030;-88
2022/12/22 08:27:55;;;;;;;27.55;14.07;;;6.80;83.30;;;;;;4188021;28;20029;-89
2022/12/22 08:29:59;;;;;;;27.38;14.05;;;6.70;83.30;;;;;;4166986;28;20116;-89
2022/12/22 08:32:00;;;;;;;28.90;14.02;;;6.70;83.30;;;;;;4176059;28;20028;-90
2022/12/22 08:34:04;;;;;;;28.60;14.32;;;6.80;83.40;;;;;;4174060;28;20483;-88
2022/12/22 08:36:06;;;;;;;33.45;13.85;;;6.70;83.40;;;;;;4179626;28;20123;-88
2022/12/22 08:38:08;;;;;;;28.40;14.05;;;6.80;83.40;;;;;;4183866;28;20028;-89
2022/12/22 08:40:15;;;;;;;33.72;14.73;;;6.70;83.30;;;;;;4174289;28;20033;-88
2022/12/22 08:42:18;;;;;;;25.58;12.38;;;6.80;83.30;;;;;;4182318;28;20028;-89
2022/12/22 08:44:25;;;;;;;24.15;13.88;;;6.80;83.20;;;;;;4180037;28;20028;-90
2022/12/22 08:46:25;;;;;;;25.05;13.48;;;6.70;83.10;;;;;;4178128;28;20021;-89
2022/12/22 08:48:26;;;;;;;23.23;12.93;;;6.70;83.10;;;;;;4175551;28;20254;-90
2022/12/22 08:50:27;;;;;;;22.08;12.77;;;6.80;83.20;;;;;;4178867;28;20488;-90
2022/12/22 08:52:27;;;;;;;23.38;11.55;;;6.80;83.90;;;;;;4169143;28;20029;-89
2022/12/22 08:54:28;;;;;;;23.65;11.55;;;6.80;83.20;;;;;;4179798;28;20408;-88
2022/12/22 08:56:30;;;;;;;20.40;10.63;;;6.90;83.20;;;;;;4165849;28;20036;-88
2022/12/22 08:58:30;;;;;;;19.80;10.65;;;6.80;83.10;;;;;;4182793;28;20032;-89
2022/12/22 09:00:31;;;;;;;24.52;10.85;;;6.80;83.10;;;;;;4182864;28;20104;-89
2022/12/22 09:02:32;;;;;;;19.58;10.50;;;6.80;83.00;;;;;;4180605;28;20455;-90
2022/12/22 09:04:33;;;;;;;24.90;10.82;;;6.80;83.10;;;;;;4169053;28;20084;-89
2022/12/22 09:06:38;;;;;;;24.48;10.50;;;6.80;83.00;;;;;;4178114;28;20056;-90
2022/12/22 09:08:39;;;;;;;20.65;10.32;;;6.90;83.20;;;;;;4182154;28;20032;-90
2022/12/22 09:10:42;;;;;;;23.35;10.95;;;6.90;83.20;;;;;;4174213;28;20509;-89
2022/12/22 09:12:43;;;;;;;24.50;10.60;;;6.80;83.10;;;;;;4178547;28;20029;-89
2022/12/22 09:14:44;;;;;;;19.60;9.88;;;6.80;83.10;;;;;;4171900;28;20572;-90
2022/12/22 09:17:05;;;;;;;20.25;9.60;;;6.80;83.10;;;;;;4180685;28;20032;-88
2022/12/22 09:19:26;;;;;;;19.65;9.18;;;6.80;83.00;;;;;;4183157;28;20102;-90
2022/12/22 09:21:46;;;;;;;18.95;10.27;;;6.90;83.10;;;;;;4182723;28;20039;-90
2022/12/22 09:24:07;;;;;;;21.20;10.07;;;6.80;83.00;;;;;;4181010;28;20402;-90
2022/12/22 09:26:28;;;;;;;21.30;10.75;;;6.90;83.00;;;;;;4184276;28;20178;-90
2022/12/22 09:28:49;;;;;;;21.77;9.98;;;6.90;83.10;;;;;;4182171;28;20062;-90
2022/12/22 09:31:10;;;;;;;20.25;10.23;;;6.90;83.00;;;;;;4180602;28;20101;-90
2022/12/22 09:33:32;;;;;;;24.08;9.35;;;6.90;83.00;;;;;;4186907;28;20476;-89
2022/12/22 09:35:53;;;;;;;17.27;9.23;;;6.90;83.00;;;;;;4190314;28;20032;-90
2022/12/22 09:38:14;;;;;;;22.10;10.15;;;6.90;83.00;;;;;;4182394;28;20060;-89
2022/12/22 09:40:35;;;;;;;23.20;8.70;;;6.90;83.00;;;;;;4182471;28;20054;-89
2022/12/22 09:42:56;;;;;;;22.58;8.88;;;6.90;82.90;;;;;;4184289;28;20040;-89
2022/12/22 09:45:20;;;;;;;16.85;9.10;;;6.90;83.00;;;;;;4180410;28;20508;-90
2022/12/22 09:47:41;;;;;;;18.05;9.77;;;7.00;82.90;;;;;;4182778;28;20071;-90
2022/12/22 09:50:03;;;;;;;22.20;9.35;;;7.00;82.90;;;;;;4186602;28;20658;-89
2022/12/22 09:52:47;;;;;;;22.38;9.55;;;6.90;82.90;;;;;;4185338;28;20078;-90
2022/12/22 09:55:18;;;;;;;19.77;8.45;;;6.90;83.00;;;;;;4185857;28;20037;-89
2022/12/22 09:57:41;;;;;;;20.85;9.20;;;7.00;83.10;;;;;;4178767;28;20085;-90
2022/12/22 10:00:18;;;;;;;18.13;8.27;;;7.00;83.10;;;;;;4186617;28;20040;-89
2022/12/22 10:03:13;;;;;;;21.50;8.80;;;7.00;83.10;;;;;;4183898;28;20032;-90
2022/12/22 10:05:55;;;;;;;17.55;8.25;;;7.00;83.00;;;;;;4181942;28;20300;-88
2022/12/22 10:08:27;;;;;;;19.25;9.48;;;7.10;83.10;;;;;;4179700;28;20289;-89
2022/12/22 10:10:52;;;;;;;18.67;9.25;;;7.10;82.80;;;;;;4180910;28;20261;-90
2022/12/22 10:13:17;;;;;;;19.70;10.02;;;7.10;82.80;;;;;;4179857;28;20039;-89
2022/12/22 10:15:40;;;;;;;21.95;9.18;;;7.10;82.70;;;;;;4181051;28;20024;-89
2022/12/22 10:18:13;;;;;;;18.70;8.68;;;7.10;82.60;;;;;;4186355;28;20028;-89
2022/12/22 10:20:37;;;;;;;21.33;9.13;;;7.10;82.60;;;;;;4183017;28;20033;-90
2022/12/22 10:23:01;;;;;;;20.55;8.70;;;7.10;82.50;;;;;;4186335;28;20056;-89
2022/12/22 10:25:36;;;;;;;18.88;8.50;;;7.10;82.40;;;;;;4184014;28;20115;-89
2022/12/22 10:27:59;;;;;;;24.48;8.65;;;7.10;82.30;;;;;;4181765;28;20056;-90
2022/12/22 10:30:23;;;;;;;19.42;7.63;;;7.10;82.20;;;;;;4185986;28;20045;-89
2022/12/22 10:32:59;;;;;;;;;;;7.10;82.10;;;;;;4183440;28;20029;-89
2022/12/22 10:35:19;;;;;;;18.73;8.15;;;7.10;82.10;;;;;;4178806;28;19920;-90
2022/12/22 10:37:40;;;;;;;19.38;8.18;;;7.10;82.10;;;;;;4182861;28;20147;-89
2022/12/22 10:40:20;;;;;;;15.10;7.43;;;7.10;82.00;;;;;;4183461;28;20032;-89
2022/12/22 10:42:50;;;;;;;18.92;7.90;;;7.10;82.00;;;;;;4180025;28;20029;-89
2022/12/22 10:45:26;;;;;;;18.42;8.20;;;7.10;81.80;;;;;;4184750;28;20257;-90
2022/12/22 10:47:52;;;;;;;16.75;8.02;;;7.10;81.60;;;;;;4186822;28;20032;-90
2022/12/22 10:50:13;;;;;;;20.98;8.05;;;7.10;81.70;;;;;;4182555;28;20039;-90
2022/12/22 10:52:34;;;;;;;16.25;7.68;;;7.10;81.70;;;;;;4185959;28;20029;-90
2022/12/22 10:55:15;;;;;;;23.33;7.93;;;7.10;81.70;;;;;;4181534;28;20037;-89
2022/12/22 10:57:35;;;;;;;21.92;7.35;;;7.10;81.80;;;;;;4183133;28;20032;-90
2022/12/22 10:59:58;;;;;;;24.48;6.50;;;7.10;82.50;;;;;;4184223;28;20041;-89
2022/12/22 11:02:37;;;;;;;18.02;6.68;;;7.10;81.70;;;;;;4180061;28;20033;-87
2022/12/22 11:05:07;;;;;;;17.63;6.10;;;7.10;81.70;;;;;;4173762;28;20029;-89
2022/12/22 11:07:31;;;;;;;17.90;6.45;;;7.10;81.80;;;;;;4182240;28;20029;-90
2022/12/22 11:09:52;;;;;;;;;;;7.10;81.90;;;;;;4190769;28;20028;-90
2022/12/22 11:12:13;;;;;;;18.80;5.80;;;7.10;81.70;;;;;;4173481;28;20115;-90
2022/12/22 11:14:47;;;;;;;13.80;5.97;;;7.20;81.80;;;;;;4182512;28;20044;-89
2022/12/22 11:17:37;;;;;;;15.60;6.43;;;7.20;81.80;;;;;;4180108;28;20032;-89
2022/12/22 11:20:28;;;;;;;14.98;6.43;;;7.20;81.70;;;;;;4153132;28;20044;-89
2022/12/22 11:23:05;;;;;;;22.05;7.25;;;7.20;81.60;;;;;;4175055;28;20064;-89
2022/12/22 11:25:45;;;;;;;14.50;5.95;;;7.20;81.60;;;;;;4182011;28;20105;-88
2022/12/22 11:28:16;;;;;;;15.90;6.70;;;7.20;81.60;;;;;;4184354;28;20118;-88
2022/12/22 11:31:01;;;;;;;17.73;5.88;;;7.20;81.60;;;;;;4181641;28;20070;-88
2022/12/22 11:33:46;;;;;;;15.45;5.88;;;7.20;81.60;;;;;;4182117;28;20078;-89
2022/12/22 11:36:12;;;;;;;18.83;6.93;;;7.30;81.50;;;;;;4179843;28;20095;-90
2022/12/22 11:39:01;;;;;;;20.10;6.68;;;7.30;81.40;;;;;;4184258;28;20035;-90
2022/12/22 11:41:29;;;;;;;18.33;6.13;;;7.40;81.60;;;;;;4169636;28;21884;-88
2022/12/22 11:44:05;;;;;;;18.95;6.18;;;7.30;81.40;;;;;;4177568;28;20051;-91
2022/12/22 11:46:40;;;;;;;21.90;6.05;;;7.40;81.40;;;;;;4184333;28;20119;-89
2022/12/22 11:49:25;;;;;;;17.90;6.03;;;7.30;81.30;;;;;;4189791;28;20051;-89
2022/12/22 11:52:14;;;;;;;16.98;6.13;;;7.30;81.20;;;;;;4184664;28;20119;-90
2022/12/22 11:55:02;;;;;;;24.50;6.28;;;7.30;80.70;;;;;;4188633;28;20114;-89
2022/12/22 11:57:50;;;;;;;26.05;6.65;;;7.40;80.80;;;;;;4186108;28;20180;-89
2022/12/22 12:00:13;;;;;;;18.25;6.25;;;7.30;80.90;;;;;;4184178;28;20785;-90
2022/12/22 12:02:56;;;;;;;16.67;6.72;;;7.30;80.90;;;;;;4187191;28;20067;-89
2022/12/22 12:05:21;;;;;;;20.52;6.30;;;7.30;80.70;;;;;;4187671;28;20039;-90
2022/12/22 12:07:49;;;;;;;18.67;6.22;;;7.30;80.70;;;;;;4188817;28;20031;-89
2022/12/22 12:10:17;;;;;;;18.30;6.47;;;7.30;80.50;;;;;;4188180;28;20611;-90
2022/12/22 12:12:43;;;;;;;19.42;6.10;;;7.30;80.60;;;;;;4187295;28;20083;-89
2022/12/22 12:15:28;;;;;;;17.13;6.32;;;7.30;80.60;;;;;;4182835;28;20044;-89
2022/12/22 12:18:11;;;;;;;21.75;6.28;;;7.30;80.30;;;;;;4182334;28;20071;-89
2022/12/22 12:20:58;;;;;;;15.90;5.70;;;7.30;80.70;;;;;;4185000;28;20039;-89
2022/12/22 12:23:34;;;;;;;23.02;6.13;;;7.30;80.60;;;;;;4181974;28;20094;-90
2022/12/22 12:25:59;;;;;;;24.38;6.38;;;7.40;80.80;;;;;;4183263;28;20052;-89
2022/12/22 12:28:35;;;;;;;21.42;5.38;;;7.30;80.80;;;;;;4187571;28;20119;-90
2022/12/22 12:30:59;;;;;;;23.00;5.60;;;7.30;80.80;;;;;;4181125;28;20039;-89
2022/12/22 12:33:35;;;;;;;;;;;7.30;80.90;;;;;;4185350;28;20082;-90
2022/12/22 12:36:16;;;;;;;18.83;5.00;;;7.30;80.80;;;;;;4189925;28;19965;-89
2022/12/22 12:39:02;;;;;;;18.45;4.60;;;7.30;80.80;;;;;;4180425;28;20086;-89
2022/12/22 12:41:56;;;;;;;18.33;4.50;;;7.30;80.80;;;;;;4189333;28;20082;-88
2022/12/22 12:44:19;;;;;;;24.00;4.97;;;7.30;80.90;;;;;;4191844;28;20090;-89
2022/12/22 12:46:52;;;;;;;20.13;5.33;;;7.40;81.10;;;;;;4189067;28;20040;-91
2022/12/22 12:49:33;;;;;;;18.30;4.32;;;7.50;81.20;;;;;;4190584;28;20038;-89
2022/12/22 12:51:54;;;;;;;25.88;5.32;;;7.40;81.20;;;;;;4192361;28;20120;-89
2022/12/22 12:54:37;;;;;;;19.85;4.45;;;7.40;81.90;;;;;;4189480;28;20248;-89
2022/12/22 12:57:06;;;;;;;13.18;3.78;;;7.40;81.20;;;;;;4192022;28;20437;-89
2022/12/22 12:59:40;;;;;;;18.25;4.38;;;7.50;81.20;;;;;;4185257;28;20558;-89
2022/12/22 13:02:00;;;;;;;21.85;4.28;;;7.50;81.10;;;;;;4184473;28;20128;-89
2022/12/22 13:05:00;;;;;;;22.23;4.10;;;7.50;81.20;;;;;;4184372;28;20067;-90
2022/12/22 13:07:58;;;;;;;26.13;4.72;;;7.50;81.20;;;;;;4182939;28;20051;-90
2022/12/22 13:10:21;;;;;;;13.18;4.00;;;7.50;81.10;;;;;;4183519;28;20098;-89
2022/12/22 13:12:50;;;;;;;21.63;4.55;;;7.50;81.20;;;;;;4184858;28;20031;-90
2022/12/22 13:15:26;;;;;;;21.08;4.60;;;7.60;81.20;;;;;;4181435;28;20059;-89
2022/12/22 13:17:49;;;;;;;14.63;3.78;;;7.50;81.00;;;;;;4188476;28;20843;-89
2022/12/22 13:20:17;;;;;;;20.55;4.53;;;7.60;81.20;;;;;;4179588;28;20044;-90
2022/12/22 13:22:36;;;;;;;19.80;4.65;;;7.60;81.20;;;;;;4183852;28;20179;-90
2022/12/22 13:24:55;;;;;;;18.58;3.83;;;7.60;81.20;;;;;;4183967;28;20040;-89
2022/12/22 13:27:14;;;;;;;18.02;3.75;;;7.60;81.20;;;;;;4185644;28;20352;-89
2022/12/22 13:29:43;;;;;;;25.75;4.03;;;7.60;81.20;;;;;;4187326;28;21697;-89
2022/12/22 13:32:26;;;;;;;24.38;4.15;;;7.60;81.20;;;;;;4186330;28;20055;-89
2022/12/22 13:34:53;;;;;;;16.45;3.63;;;7.70;81.10;;;;;;4193027;28;20015;-88
2022/12/22 13:37:20;;;;;;;25.77;4.78;;;7.60;81.10;;;;;;4188861;28;20116;-89
2022/12/22 13:39:40;;;;;;;26.35;4.75;;;7.60;81.00;;;;;;4184573;28;20078;-89
2022/12/22 13:41:59;;;;;;;17.75;3.67;;;7.70;81.10;;;;;;4186316;28;20598;-88
2022/12/22 13:44:27;;;;;;;24.63;4.15;;;7.70;81.20;;;;;;4187602;28;20112;-89
2022/12/22 13:46:46;;;;;;;20.35;4.10;;;7.70;81.10;;;;;;4188033;28;20511;-90
2022/12/22 13:49:08;;;;;;;18.83;4.05;;;7.70;81.10;;;;;;4188733;28;20106;-88
2022/12/22 13:51:33;;;;;;;16.40;3.42;;;7.70;81.00;;;;;;4183644;28;20043;-89
2022/12/22 13:53:56;;;;;;;;;;;7.70;81.00;;;;;;4186170;28;20113;-90
2022/12/22 13:56:25;;;;;;;9.48;2.63;;;7.70;80.70;;;;;;4185599;28;19989;-89
2022/12/22 13:58:49;;;;;;;23.08;4.28;;;7.70;80.80;;;;;;4185946;28;20571;-90
2022/12/22 14:01:09;;;;;;;23.65;4.18;;;7.70;80.70;;;;;;4183795;28;20410;-90
2022/12/22 14:03:28;;;;;;;20.30;4.80;;;7.70;80.60;;;;;;4184661;28;20146;-90
2022/12/22 14:05:47;;;;;;;16.65;4.80;;;7.60;80.50;;;;;;4182069;28;20102;-90
2022/12/22 14:08:09;;;;;;;17.67;5.13;;;7.60;80.30;;;;;;4179613;28;20048;-91
2022/12/22 14:10:33;;;;;;;14.93;4.78;;;7.60;80.10;;;;;;4188099;28;20097;-90
2022/12/22 14:12:52;;;;;;;17.98;4.57;;;7.60;79.90;;;;;;4195081;28;20062;-91
2022/12/22 14:15:17;;;;;;;22.98;5.13;;;7.50;79.70;;;;;;4200054;28;20031;-90
2022/12/22 14:17:39;;;;;;;27.70;5.32;;;7.60;79.80;;;;;;4200938;28;20097;-89
2022/12/22 14:20:00;;;;;;;24.70;5.72;;;7.60;79.80;;;;;;4196070;28;20320;-90
2022/12/22 14:22:27;;;;;;;16.48;5.20;;;7.40;79.70;;;;;;4200730;28;20066;-90
2022/12/22 14:24:42;;;;;;;12.30;4.15;;;7.40;79.70;;;;;;4193206;28;20033;-90
2022/12/22 14:26:44;;;;;;;23.48;5.53;;;7.30;79.70;;;;;;4184341;28;20037;-90
2022/12/22 14:28:49;;;;;;;23.17;5.53;;;7.40;79.90;;;;;;4181313;28;20078;-89
2022/12/22 14:30:54;;;;;;;19.13;5.10;;;7.30;79.90;;;;;;4160020;28;20559;-89
2022/12/22 14:32:55;;;;;;;15.13;4.97;;;7.30;80.00;;;;;;4183717;28;20024;-90
2022/12/22 14:34:56;;;;;;;23.75;5.00;;;7.20;80.00;;;;;;4183129;28;20420;-90
2022/12/22 14:36:58;;;;;;;18.67;5.38;;;7.20;80.10;;;;;;4185146;28;20024;-89
2022/12/22 14:38:58;;;;;;;17.27;5.20;;;7.20;80.10;;;;;;4189604;28;20054;-90
2022/12/22 14:41:09;;;;;;;12.27;4.43;;;7.20;80.10;;;;;;4184348;28;20032;-90
2022/12/22 14:43:30;;;;;;;21.02;5.50;;;7.30;80.30;;;;;;4186496;28;20111;-90
2022/12/22 14:45:32;;;;;;;17.17;5.05;;;7.20;80.30;;;;;;4184440;28;20091;-89
2022/12/22 14:47:36;;;;;;;19.77;5.03;;;7.10;80.30;;;;;;4185601;28;20397;-91
2022/12/22 14:49:48;;;;;;;19.50;5.15;;;7.20;80.40;;;;;;4186280;28;20024;-90
2022/12/22 14:51:54;;;;;;;16.75;5.03;;;7.20;80.40;;;;;;4174108;28;20025;-90
2022/12/22 14:54:01;;;;;;;22.42;5.55;;;7.20;80.50;;;;;;4155319;28;20038;-90
2022/12/22 14:56:10;;;;;;;22.23;5.13;;;7.10;80.50;;;;;;4189972;28;20047;-90
2022/12/22 14:58:23;;;;;;;28.92;4.95;;;7.10;80.50;;;;;;4180461;28;20021;-90
2022/12/22 15:00:24;;;;;;;19.52;4.85;;;7.10;80.60;;;;;;4168055;28;20119;-89
2022/12/22 15:02:32;;;;;;;20.02;4.70;;;7.00;80.60;;;;;;4182492;28;20032;-90
2022/12/22 15:04:33;;;;;;;25.77;5.47;;;7.10;80.70;;;;;;4167290;28;20040;-89
2022/12/22 15:06:42;;;;;;;22.67;5.05;;;7.10;80.80;;;;;;4189054;28;20320;-90
2022/12/22 15:08:43;;;;;;;23.92;4.32;;;7.00;80.70;;;;;;4187584;28;20025;-89
2022/12/22 15:10:44;;;;;;;22.85;5.18;;;7.00;80.90;;;;;;4183992;28;20047;-90
2022/12/22 15:12:46;;;;;;;23.27;4.40;;;7.00;80.90;;;;;;4186732;28;20017;-89
2022/12/22 15:14:47;;;;;;;18.85;4.03;;;7.00;81.00;;;;;;4185019;28;20399;-88
2022/12/22 15:16:49;;;;;;;21.50;4.50;;;7.00;81.00;;;;;;4164590;28;20045;-90
2022/12/22 15:18:51;;;;;;;21.92;4.10;;;7.00;81.10;;;;;;4186424;28;20031;-89
2022/12/22 15:20:57;;;;;;;17.77;4.05;;;7.00;81.20;;;;;;4164429;28;20513;-89
2022/12/22 15:22:57;;;;;;;23.30;5.82;;;7.00;81.20;;;;;;4183455;28;20036;-89
2022/12/22 15:24:58;;;;;;;26.42;4.15;;;7.00;81.20;;;;;;4180436;28;20044;-91
2022/12/22 15:26:59;;;;;;;32.85;4.07;;;7.10;81.40;;;;;;4185196;28;20047;-91
2022/12/22 15:28:59;;;;;;;21.38;3.80;;;7.00;81.40;;;;;;4185980;28;20135;-91
2022/12/22 15:31:02;;;;;;;18.58;3.50;;;7.00;81.40;;;;;;4168324;28;20029;-88
2022/12/22 15:33:02;;;;;;;16.77;3.50;;;7.00;81.40;;;;;;4172453;28;20029;-89
2022/12/22 15:35:17;;;;;;;31.05;3.47;;;7.10;81.50;;;;;;4182213;28;20566;-90
2022/12/22 15:37:18;;;;;;;19.25;3.50;;;7.00;81.50;;;;;;4187510;28;20396;-91
2022/12/22 15:39:20;;;;;;;20.25;3.45;;;7.10;81.60;;;;;;4187548;28;20029;-89
2022/12/22 15:41:21;;;;;;;21.58;3.40;;;7.00;81.60;;;;;;4186260;28;20036;-90
2022/12/22 15:43:22;;;;;;;29.67;3.90;;;7.00;81.60;;;;;;4184101;28;20032;-90